TimePDT,TemperatureF,Dew PointF,Humidity,Sea Level PressureIn,VisibilityMPH,Wind Direction,Wind SpeedMPH,Gust SpeedMPH,PrecipitationIn,Events,Conditions,WindDirDegrees,DateUTC
12:56 AM,48.0,45.0,89,30.19,10.0,West,3.5,-,N/A,,Overcast,270,2013-03-16 07:56:00
1:56 AM,48.0,45.0,89,30.19,10.0,Calm,Calm,-,N/A,,Overcast,0,2013-03-16 08:56:00
2:56 AM,48.0,45.0,89,30.19,10.0,Calm,Calm,-,N/A,,Mostly Cloudy,0,2013-03-16 09:56:00
3:56 AM,48.0,45.0,89,30.18,10.0,Calm,Calm,-,N/A,,Overcast,0,2013-03-16 10:56:00
4:56 AM,48.0,44.1,86,30.16,10.0,SSW,5.8,-,N/A,,Mostly Cloudy,200,2013-03-16 11:56:00
5:56 AM,48.9,45.0,86,30.15,10.0,SSW,6.9,-,N/A,,Overcast,200,2013-03-16 12:56:00
6:56 AM,48.9,45.0,86,30.13,10.0,SE,5.8,-,N/A,,Overcast,140,2013-03-16 13:56:00
7:56 AM,48.0,45.0,89,30.13,10.0,SSE,5.8,-,N/A,,Mostly Cloudy,160,2013-03-16 14:56:00
8:56 AM,48.0,45.0,89,30.16,10.0,SSW,6.9,-,N/A,,Overcast,200,2013-03-16 15:56:00
9:56 AM,48.9,43.0,80,30.15,10.0,SSW,9.2,-,N/A,,Overcast,210,2013-03-16 16:56:00
10:56 AM,50.0,43.0,77,30.14,10.0,SSW,8.1,-,N/A,,Overcast,210,2013-03-16 17:56:00
11:56 AM,50.0,44.1,80,30.13,10.0,South,8.1,-,N/A,,Overcast,180,2013-03-16 18:56:00
12:56 PM,50.0,44.1,80,30.11,10.0,South,11.5,-,0.00,Rain,Light Rain,190,2013-03-16 19:56:00
1:56 PM,48.9,45.0,86,30.10,8.0,SW,12.7,17.3,0.03,Rain,Light Rain,220,2013-03-16 20:56:00
2:56 PM,50.0,44.1,80,30.08,10.0,SSW,8.1,-,0.00,,Overcast,200,2013-03-16 21:56:00
3:08 PM,50.0,44.6,82,30.06,10.0,South,10.4,-,N/A,,Overcast,180,2013-03-16 22:08:00
3:15 PM,50.0,44.6,82,30.06,10.0,South,10.4,-,N/A,,Overcast,180,2013-03-16 22:15:00
3:56 PM,51.1,45.0,80,30.05,10.0,South,12.7,23.0,0.00,Rain,Light Rain,190,2013-03-16 22:56:00
4:56 PM,48.0,45.0,89,30.04,6.0,SSW,9.2,-,0.03,Rain,Light Rain,210,2013-03-16 23:56:00
5:14 PM,48.2,44.6,87,30.04,1.8,West,10.4,-,0.03,Rain,Rain,260,2013-03-17 00:14:00
5:21 PM,46.4,42.8,87,30.06,3.0,NW,23.0,29.9,0.11,Rain,Heavy Rain,310,2013-03-17 00:21:00
5:56 PM,43.0,41.0,93,30.07,10.0,WNW,9.2,-,0.18,Rain,Light Rain,300,2013-03-17 00:56:00
6:56 PM,43.0,37.9,82,30.07,10.0,West,4.6,-,0.00,,Mostly Cloudy,270,2013-03-17 01:56:00
7:56 PM,37.9,36.0,93,30.10,10.0,ESE,5.8,-,N/A,,Mostly Cloudy,110,2013-03-17 02:56:00
8:56 PM,42.1,39.9,92,30.12,10.0,SSE,5.8,-,N/A,,Overcast,160,2013-03-17 03:56:00
9:56 PM,42.1,39.9,92,30.14,10.0,Calm,Calm,-,0.00,Rain,Light Rain,0,2013-03-17 04:56:00
10:56 PM,41.0,37.0,86,30.17,10.0,WNW,6.9,-,0.00,,Scattered Clouds,290,2013-03-17 05:56:00
11:56 PM,41.0,34.0,76,30.19,10.0,SW,6.9,-,N/A,,Overcast,230,2013-03-17 06:56:00